Time;durP1;ratioP1;P1;durP2;ratioP2;P2;SDS_P1;SDS_P2;PMS_P1;PMS_P2;Temp;Humidity;BMP_temperature;BMP_pressure;BME280_temperature;BME280_humidity;BME280_pressure;Samples;Min_cycle;Max_cycle;Signal;HPM_P1;HPM_P2
2022/12/17 13:07:04;;;;;;;7.93;1.98;;;18.30;77.80;;;;;;4992397;28;20551;-74
2022/12/17 13:09:46;;;;;;;9.35;1.75;;;18.30;77.80;;;;;;4989307;28;20046;-76
2022/12/17 13:12:43;;;;;;;7.85;2.13;;;18.10;77.50;;;;;;4992364;28;20030;-76
2022/12/17 13:15:25;;;;;;;5.63;1.90;;;18.00;78.10;;;;;;4991945;28;20154;-75
2022/12/17 13:18:00;;;;;;;7.55;1.90;;;17.90;78.50;;;;;;4992333;28;20166;-73
2022/12/17 13:20:32;;;;;;;9.75;1.80;;;17.80;79.10;;;;;;4992487;28;20077;-76
2022/12/17 13:23:25;;;;;;;7.43;2.13;;;17.70;79.20;;;;;;4990643;28;20034;-74
2022/12/17 13:26:16;;;;;;;7.97;2.38;;;17.60;79.60;;;;;;4993846;28;20046;-78
2022/12/17 13:28:48;;;;;;;10.23;3.22;;;17.50;79.80;;;;;;4995468;28;20035;-76
2022/12/17 13:31:18;;;;;;;8.73;2.83;;;17.50;80.00;;;;;;4993946;28;20110;-75
2022/12/17 13:33:50;;;;;;;11.90;2.50;;;17.50;79.70;;;;;;4995723;28;20034;-76
2022/12/17 13:36:52;;;;;;;7.57;2.13;;;17.50;79.90;;;;;;4995414;28;20034;-78
2022/12/17 13:39:24;;;;;;;6.28;1.88;;;17.60;79.90;;;;;;4985805;28;20038;-78
2022/12/17 13:41:55;;;;;;;9.73;2.58;;;17.50;79.90;;;;;;4993993;28;20049;-80
2022/12/17 13:44:24;;;;;;;7.22;2.20;;;17.50;80.10;;;;;;4995445;28;20050;-79
2022/12/17 13:46:52;;;;;;;9.98;2.78;;;17.50;81.30;;;;;;4995499;28;20038;-79
2022/12/17 13:49:27;;;;;;;10.05;2.50;;;17.50;80.90;;;;;;4993947;28;20088;-77
2022/12/17 13:52:20;;;;;;;8.18;2.28;;;17.60;81.30;;;;;;4993943;28;20038;-76
2022/12/17 13:54:46;;;;;;;6.27;2.20;;;17.60;81.60;;;;;;4974922;28;20100;-76
2022/12/17 13:57:14;;;;;;;7.57;2.25;;;17.60;81.80;;;;;;4993938;28;20121;-82
2022/12/17 13:59:48;;;;;;;7.70;2.63;;;17.60;82.00;;;;;;4995370;28;20193;-76
2022/12/17 14:02:29;;;;;;;8.30;2.65;;;17.70;82.10;;;;;;4994178;28;20555;-75
2022/12/17 14:04:58;;;;;;;10.38;3.08;;;17.60;82.00;;;;;;4995145;28;20034;-77
2022/12/17 14:07:26;;;;;;;11.18;2.80;;;17.60;82.20;;;;;;4995554;28;20041;-77
2022/12/17 14:09:53;;;;;;;7.15;2.50;;;17.50;82.40;;;;;;4995297;28;20454;-80
2022/12/17 14:12:22;;;;;;;8.50;2.03;;;17.50;82.70;;;;;;4993929;28;20114;-83
2022/12/17 14:14:54;;;;;;;7.90;2.17;;;17.40;82.70;;;;;;4994455;28;20165;-82
2022/12/17 14:17:24;;;;;;;8.32;2.05;;;17.40;82.80;;;;;;4994085;28;20061;-80
2022/12/17 14:20:16;;;;;;;7.15;2.10;;;17.30;83.00;;;;;;4993637;28;20549;-74
2022/12/17 14:22:46;;;;;;;6.63;1.90;;;17.30;83.10;;;;;;4986536;28;20050;-76
2022/12/17 14:25:20;;;;;;;8.00;2.40;;;17.30;83.30;;;;;;4994790;28;20509;-74
2022/12/17 14:27:54;;;;;;;6.05;2.45;;;17.30;83.50;;;;;;4994660;28;20081;-74
2022/12/17 14:30:32;;;;;;;11.48;2.42;;;17.30;83.60;;;;;;4994797;28;20209;-72
2022/12/17 14:32:58;;;;;;;6.03;1.98;;;17.30;83.60;;;;;;4994778;28;20037;-74
2022/12/17 14:35:27;;;;;;;7.78;2.80;;;17.30;83.50;;;;;;4994425;28;20030;-75
2022/12/17 14:37:52;;;;;;;7.22;2.65;;;17.30;83.60;;;;;;4993027;28;20039;-74
2022/12/17 14:40:19;;;;;;;10.80;3.08;;;17.30;83.80;;;;;;4994186;28;20050;-74
2022/12/17 14:42:44;;;;;;;7.70;2.90;;;17.30;84.40;;;;;;4993104;28;20035;-73
2022/12/17 14:45:13;;;;;;;10.18;2.35;;;17.30;83.90;;;;;;4992828;28;20060;-73
2022/12/17 14:47:39;;;;;;;11.60;2.15;;;17.30;84.00;;;;;;4994440;28;20482;-75
2022/12/17 14:50:11;;;;;;;10.30;2.03;;;17.20;83.80;;;;;;4994641;28;20371;-76
2022/12/17 14:52:38;;;;;;;10.32;2.15;;;17.20;84.00;;;;;;4992947;28;20479;-74
2022/12/17 14:55:22;;;;;;;9.05;2.42;;;17.10;83.90;;;;;;4993098;28;20030;-72
2022/12/17 14:57:49;;;;;;;13.32;2.75;;;17.10;84.10;;;;;;4994970;28;20129;-79
2022/12/17 15:00:15;;;;;;;8.32;2.38;;;17.10;84.40;;;;;;4993643;28;20061;-81
2022/12/17 15:02:43;;;;;;;7.53;2.13;;;17.10;84.30;;;;;;4995433;28;20056;-75
2022/12/17 15:05:14;;;;;;;13.45;2.50;;;17.00;84.10;;;;;;4994503;28;20069;-74
2022/12/17 15:07:40;;;;;;;10.80;2.22;;;17.00;84.30;;;;;;4992776;28;20517;-78
2022/12/17 15:10:12;;;;;;;7.57;2.38;;;16.90;84.20;;;;;;4983725;28;20074;-78
2022/12/17 15:12:40;;;;;;;10.27;2.33;;;16.90;84.40;;;;;;5005064;28;20034;-82
2022/12/17 15:15:07;;;;;;;7.20;2.10;;;16.90;84.50;;;;;;4997397;28;20101;-82
2022/12/17 15:17:32;;;;;;;7.93;2.15;;;16.80;84.60;;;;;;4995633;28;20053;-83
2022/12/17 15:19:58;;;;;;;12.02;2.40;;;16.80;84.50;;;;;;4996725;28;20482;-81
2022/12/17 15:22:24;;;;;;;7.57;2.92;;;16.80;84.50;;;;;;4995295;28;20568;-83
2022/12/17 15:24:50;;;;;;;7.10;2.83;;;16.70;84.60;;;;;;4979134;28;20128;-83
2022/12/17 15:27:16;;;;;;;7.93;2.80;;;16.70;84.80;;;;;;5001265;28;20042;-84
2022/12/17 15:29:42;;;;;;;8.40;2.95;;;16.70;85.00;;;;;;5005154;28;20457;-83
2022/12/17 15:32:18;;;;;;;7.57;2.65;;;16.60;85.10;;;;;;5008520;28;20038;-85
2022/12/17 15:34:44;;;;;;;8.05;2.85;;;16.60;85.00;;;;;;5005591;28;20096;-84
2022/12/17 15:37:09;;;;;;;7.47;2.75;;;16.50;85.20;;;;;;4991868;28;20027;-83
2022/12/17 15:39:35;;;;;;;10.70;2.85;;;16.50;85.10;;;;;;4995668;28;20041;-83
2022/12/17 15:44:45;;;;;;;11.23;3.75;;;16.50;85.70;;;;;;4999721;28;20048;-87
2022/12/17 15:47:11;;;;;;;8.65;3.08;;;16.40;85.40;;;;;;4996180;28;20113;-86
2022/12/17 15:49:36;;;;;;;12.23;3.20;;;16.40;85.40;;;;;;4994698;28;20092;-82
2022/12/17 15:52:02;;;;;;;10.85;3.00;;;16.40;85.60;;;;;;4994955;28;20038;-82
2022/12/17 15:54:28;;;;;;;10.75;3.50;;;16.40;85.50;;;;;;4994687;28;20034;-80
2022/12/17 15:56:55;;;;;;;12.95;2.95;;;16.40;85.40;;;;;;4977391;28;20034;-84
2022/12/17 15:59:21;;;;;;;8.85;3.00;;;16.40;85.50;;;;;;4999516;28;20502;-86
2022/12/17 16:01:47;;;;;;;8.75;3.00;;;16.40;85.60;;;;;;4995325;28;20123;-86
2022/12/17 16:04:12;;;;;;;6.80;2.85;;;16.40;85.60;;;;;;4993573;28;20034;-81
2022/12/17 16:06:38;;;;;;;7.85;3.10;;;16.40;85.80;;;;;;4994093;28;20063;-79
2022/12/17 16:09:04;;;;;;;7.43;3.33;;;16.30;85.80;;;;;;4991877;28;20117;-81
2022/12/17 16:11:30;;;;;;;10.15;3.38;;;16.30;85.90;;;;;;4992779;28;20034;-78
2022/12/17 16:13:55;;;;;;;11.13;4.15;;;16.30;86.10;;;;;;4989101;28;20049;-76
2022/12/17 16:16:22;;;;;;;12.93;3.90;;;16.30;86.30;;;;;;4992146;28;20041;-78
2022/12/17 16:18:48;;;;;;;10.73;3.30;;;16.30;86.40;;;;;;4985545;28;20041;-78
2022/12/17 16:21:14;;;;;;;11.63;3.60;;;16.20;86.40;;;;;;4992200;28;20449;-78
2022/12/17 16:23:40;;;;;;;12.52;3.80;;;16.20;86.70;;;;;;4991305;28;20026;-78
2022/12/17 16:26:07;;;;;;;15.10;4.35;;;16.20;86.60;;;;;;4992567;28;20050;-77
2022/12/17 16:28:34;;;;;;;9.68;4.63;;;16.20;86.70;;;;;;4991057;28;20407;-78
2022/12/17 16:31:04;;;;;;;10.95;4.95;;;16.20;87.00;;;;;;4991314;28;20129;-76
2022/12/17 16:33:34;;;;;;;11.45;5.18;;;16.20;87.10;;;;;;4993588;28;20040;-78
2022/12/17 16:36:01;;;;;;;9.73;4.38;;;16.20;87.10;;;;;;4993390;28;20037;-78
2022/12/17 16:38:26;;;;;;;11.75;4.18;;;16.20;87.30;;;;;;4991442;28;20050;-80
2022/12/17 16:41:00;;;;;;;9.23;3.90;;;16.20;87.50;;;;;;4991308;28;20046;-80
2022/12/17 16:43:27;;;;;;;11.38;3.83;;;16.10;87.40;;;;;;4992597;28;20038;-77
2022/12/17 16:45:53;;;;;;;10.65;4.00;;;16.20;88.00;;;;;;4991367;28;20488;-79
2022/12/17 16:48:21;;;;;;;7.63;3.70;;;16.10;87.80;;;;;;4974971;28;20046;-79
2022/12/17 16:50:49;;;;;;;13.32;4.28;;;16.10;87.80;;;;;;4990893;28;20089;-80
2022/12/17 16:53:14;;;;;;;8.02;3.33;;;16.00;88.10;;;;;;4984665;28;20498;-79
2022/12/17 16:55:42;;;;;;;10.88;3.58;;;16.00;88.10;;;;;;4974962;28;20077;-79
2022/12/17 16:58:08;;;;;;;15.32;3.70;;;16.00;88.20;;;;;;4993061;28;20022;-81
2022/12/17 17:00:35;;;;;;;13.43;4.07;;;15.90;88.40;;;;;;4978122;28;20534;-77
2022/12/17 17:03:00;;;;;;;13.43;4.68;;;15.90;88.70;;;;;;4994781;28;20455;-77
2022/12/17 17:05:26;;;;;;;10.57;4.20;;;15.80;88.40;;;;;;4994914;28;20034;-79
2022/12/17 17:07:52;;;;;;;17.77;5.68;;;15.90;88.50;;;;;;4995911;28;20109;-77
2022/12/17 17:10:18;;;;;;;18.10;7.63;;;15.90;88.70;;;;;;4996037;28;20494;-78
2022/12/17 17:12:44;;;;;;;11.00;7.07;;;15.80;88.30;;;;;;4995759;28;20030;-80
2022/12/17 17:15:10;;;;;;;15.77;8.10;;;15.90;88.50;;;;;;4995925;28;20045;-85
2022/12/17 17:17:35;;;;;;;22.27;9.63;;;15.90;88.60;;;;;;4995796;28;20535;-77
2022/12/17 17:20:01;;;;;;;20.17;10.45;;;15.90;88.50;;;;;;4996063;28;20107;-79
2022/12/17 17:22:27;;;;;;;13.95;10.10;;;15.90;88.80;;;;;;4978131;28;20379;-84
2022/12/17 17:24:53;;;;;;;15.32;8.15;;;15.90;88.90;;;;;;4998043;28;20031;-83
2022/12/17 17:27:19;;;;;;;15.23;7.72;;;15.90;89.10;;;;;;4994700;28;20050;-78
2022/12/17 17:29:44;;;;;;;15.07;7.18;;;15.90;89.30;;;;;;4997589;28;20042;-82
2022/12/17 17:32:10;;;;;;;14.02;6.57;;;15.90;89.50;;;;;;4995015;28;20045;-82
2022/12/17 17:34:36;;;;;;;15.18;6.55;;;15.90;89.30;;;;;;4996597;28;20042;-87
2022/12/17 17:37:02;;;;;;;14.00;7.40;;;15.80;89.80;;;;;;5003627;28;20121;-81
2022/12/17 17:39:31;;;;;;;15.35;7.95;;;15.80;89.70;;;;;;4999376;28;20130;-84
2022/12/17 17:41:57;;;;;;;12.82;7.07;;;15.70;89.90;;;;;;4980199;28;20398;-88
2022/12/17 17:44:23;;;;;;;13.73;6.45;;;15.70;90.00;;;;;;5000536;28;20038;-85
2022/12/17 17:46:49;;;;;;;16.58;6.68;;;15.60;90.00;;;;;;5003521;28;20030;-83
2022/12/17 17:49:15;;;;;;;13.48;6.68;;;15.60;90.20;;;;;;4998960;28;20478;-84
2022/12/17 17:51:42;;;;;;;13.23;6.80;;;15.60;90.20;;;;;;4996878;28;20034;-83
2022/12/17 17:54:08;;;;;;;14.30;6.18;;;15.50;90.20;;;;;;4996789;28;20046;-84
2022/12/17 17:56:37;;;;;;;15.02;6.25;;;15.50;90.20;;;;;;4996944;28;20034;-81
2022/12/17 17:59:11;;;;;;;14.40;7.28;;;15.50;90.30;;;;;;4997494;28;20053;-83
2022/12/17 18:01:40;;;;;;;13.68;6.43;;;15.50;90.30;;;;;;4997332;28;20035;-88
2022/12/17 18:04:09;;;;;;;12.63;5.95;;;15.40;90.30;;;;;;4999586;28;20354;-81
2022/12/17 18:06:39;;;;;;;15.90;6.35;;;15.40;90.40;;;;;;4979988;28;20038;-81
2022/12/17 18:09:06;;;;;;;14.05;6.25;;;15.40;90.40;;;;;;4994673;28;20034;-82
2022/12/17 18:11:32;;;;;;;17.05;7.28;;;15.40;90.40;;;;;;5000944;28;20045;-87
2022/12/17 18:13:59;;;;;;;13.73;7.10;;;15.40;90.40;;;;;;5005318;28;20034;-82
2022/12/17 18:16:28;;;;;;;19.10;7.78;;;15.40;90.30;;;;;;4990445;28;20014;-86
2022/12/17 18:19:00;;;;;;;14.50;7.72;;;15.40;90.30;;;;;;5011846;28;20050;-81
2022/12/17 18:21:27;;;;;;;14.45;7.63;;;15.50;90.20;;;;;;4985067;28;20050;-80
2022/12/17 18:23:55;;;;;;;17.75;9.07;;;15.50;90.00;;;;;;4996524;28;20022;-81
2022/12/17 18:26:22;;;;;;;12.50;7.47;;;15.50;90.00;;;;;;4994843;28;20070;-83
2022/12/17 18:28:48;;;;;;;12.68;7.57;;;15.50;90.00;;;;;;4996896;28;20041;-80
2022/12/17 18:31:20;;;;;;;13.68;7.45;;;15.50;90.20;;;;;;5000890;28;20121;-82
2022/12/17 18:33:52;;;;;;;14.88;6.40;;;15.50;90.00;;;;;;5000431;28;20038;-77
2022/12/17 18:36:26;;;;;;;12.73;6.68;;;15.50;90.10;;;;;;4998782;28;20061;-83
2022/12/17 18:38:56;;;;;;;14.88;7.30;;;15.50;90.20;;;;;;4996055;28;20068;-83
2022/12/17 18:44:06;;;;;;;12.80;7.78;;;15.40;90.20;;;;;;4998392;28;20101;-86
2022/12/17 18:46:33;;;;;;;13.27;8.68;;;15.40;90.30;;;;;;4980279;28;20038;-84
2022/12/17 18:49:01;;;;;;;15.05;9.15;;;15.40;90.20;;;;;;4997877;28;20455;-86
2022/12/17 18:51:27;;;;;;;15.93;8.77;;;15.30;90.10;;;;;;5002974;28;20072;-81
2022/12/17 18:53:58;;;;;;;13.68;7.93;;;15.40;90.10;;;;;;5008172;28;20046;-82
2022/12/17 18:56:24;;;;;;;14.98;8.70;;;15.40;90.30;;;;;;5009152;28;20167;-86
2022/12/17 18:58:56;;;;;;;15.70;8.98;;;15.30;90.00;;;;;;4990966;28;20065;-84
2022/12/17 19:01:28;;;;;;;13.30;8.70;;;15.30;90.30;;;;;;5001536;28;20509;-73
2022/12/17 19:03:54;;;;;;;17.08;9.50;;;15.30;90.10;;;;;;4991665;28;20085;-71
2022/12/17 19:06:22;;;;;;;13.88;8.10;;;15.30;90.30;;;;;;4974493;28;20130;-72
2022/12/17 19:08:48;;;;;;;15.65;9.23;;;15.30;90.00;;;;;;4972876;28;20031;-71
2022/12/17 19:11:18;;;;;;;13.50;9.30;;;15.30;90.20;;;;;;4974162;28;20035;-71
2022/12/17 19:13:45;;;;;;;17.98;8.82;;;15.30;90.20;;;;;;4973926;28;20054;-73
2022/12/17 19:16:22;;;;;;;14.88;10.13;;;15.40;90.10;;;;;;4978960;28;20038;-71
2022/12/17 19:18:58;;;;;;;16.27;11.15;;;15.40;90.20;;;;;;4993535;28;20030;-71
2022/12/17 19:21:25;;;;;;;18.73;9.73;;;15.30;90.00;;;;;;4992089;28;20049;-74
2022/12/17 19:23:59;;;;;;;16.10;10.23;;;15.30;90.30;;;;;;4991129;28;20055;-74
2022/12/17 19:26:26;;;;;;;18.25;10.07;;;15.30;90.10;;;;;;4992817;28;20072;-70
2022/12/17 19:28:54;;;;;;;15.38;10.63;;;15.30;90.40;;;;;;4991999;28;20045;-74
2022/12/17 19:31:22;;;;;;;17.33;10.95;;;15.30;90.20;;;;;;4992065;28;20041;-74
2022/12/17 19:33:48;;;;;;;16.48;10.40;;;15.30;90.40;;;;;;4992083;28;20459;-73
2022/12/17 19:36:16;;;;;;;15.63;10.40;;;15.30;90.10;;;;;;4992942;28;20513;-73
2022/12/17 19:38:43;;;;;;;16.70;9.93;;;15.30;90.30;;;;;;4991773;28;20487;-71
2022/12/17 19:41:11;;;;;;;18.52;11.50;;;15.30;90.30;;;;;;4993647;28;20053;-79
2022/12/17 19:43:37;;;;;;;16.65;12.05;;;15.30;90.30;;;;;;4991815;28;20386;-72
2022/12/17 19:46:06;;;;;;;17.30;11.43;;;15.30;90.20;;;;;;4992964;28;20042;-72
2022/12/17 19:48:33;;;;;;;23.20;12.05;;;15.30;90.20;;;;;;4991543;28;20034;-73
2022/12/17 19:51:00;;;;;;;16.50;11.85;;;15.30;90.20;;;;;;4992205;28;20104;-79
2022/12/17 19:53:27;;;;;;;22.52;12.40;;;15.30;90.20;;;;;;4992483;28;20406;-80
2022/12/17 19:55:54;;;;;;;20.52;11.98;;;15.30;90.40;;;;;;4993482;28;20482;-80
2022/12/17 19:58:23;;;;;;;24.80;12.57;;;15.30;90.20;;;;;;4994743;28;20034;-88
2022/12/17 20:00:50;;;;;;;21.80;11.75;;;15.20;90.00;;;;;;4990679;28;20137;-85
2022/12/17 20:03:16;;;;;;;19.33;11.85;;;15.20;90.20;;;;;;5004878;28;20034;-89
2022/12/17 20:05:46;;;;;;;21.00;12.60;;;15.20;90.20;;;;;;5004454;28;20042;-86
2022/12/17 20:08:12;;;;;;;24.38;14.23;;;15.20;90.30;;;;;;5000416;28;20030;-88
2022/12/17 20:10:38;;;;;;;21.98;13.38;;;15.20;90.50;;;;;;4997413;28;20030;-82
2022/12/17 20:13:04;;;;;;;19.90;13.30;;;15.10;90.40;;;;;;4999164;28;20044;-84
2022/12/17 20:15:30;;;;;;;22.38;14.32;;;15.10;90.40;;;;;;4984872;28;20042;-87
2022/12/17 20:17:56;;;;;;;21.35;13.60;;;15.00;90.50;;;;;;4982374;28;20077;-88
2022/12/17 20:20:22;;;;;;;21.10;12.38;;;14.90;90.60;;;;;;4997560;28;20043;-89
2022/12/17 20:22:48;;;;;;;20.60;14.30;;;14.90;90.70;;;;;;4998164;28;20031;-87
2022/12/17 20:25:13;;;;;;;23.77;13.77;;;14.80;90.70;;;;;;4977834;28;20551;-88
2022/12/17 20:27:40;;;;;;;25.02;13.38;;;14.80;90.90;;;;;;4994439;28;20137;-89
2022/12/17 20:30:06;;;;;;;17.63;12.63;;;14.80;91.00;;;;;;4996987;28;20035;-90
2022/12/17 20:32:33;;;;;;;20.75;13.75;;;14.90;91.00;;;;;;4996908;28;20333;-90
2022/12/17 20:34:59;;;;;;;17.00;12.23;;;14.90;91.00;;;;;;4996512;28;20038;-86
2022/12/17 20:37:25;;;;;;;18.38;12.60;;;14.90;91.00;;;;;;4998685;28;20093;-87
2022/12/17 20:39:50;;;;;;;20.98;12.82;;;14.90;91.00;;;;;;4997924;28;20050;-86
2022/12/17 20:42:16;;;;;;;17.77;12.52;;;14.90;90.90;;;;;;4997191;28;20061;-85
2022/12/17 20:44:42;;;;;;;28.67;16.35;;;15.00;91.00;;;;;;4996916;28;20030;-84
2022/12/17 20:47:08;;;;;;;19.85;14.45;;;15.00;91.00;;;;;;4996466;28;20053;-84
2022/12/17 20:49:34;;;;;;;26.15;14.60;;;15.00;90.90;;;;;;4999205;28;20520;-87
2022/12/17 20:52:01;;;;;;;23.02;13.35;;;15.00;90.90;;;;;;4998328;28;20117;-88
2022/12/17 20:54:26;;;;;;;23.88;12.65;;;15.10;91.00;;;;;;4999165;28;20589;-86
2022/12/17 20:56:52;;;;;;;22.77;15.63;;;15.10;91.20;;;;;;4980777;28;20066;-83
2022/12/17 20:59:19;;;;;;;21.20;12.35;;;15.10;90.90;;;;;;4979818;28;20034;-85
2022/12/17 21:01:45;;;;;;;20.88;12.75;;;15.10;90.70;;;;;;4996957;28;20038;-80
2022/12/17 21:04:13;;;;;;;18.67;12.27;;;15.10;90.80;;;;;;4997318;28;20050;-82
2022/12/17 21:06:45;;;;;;;19.98;12.05;;;15.10;90.70;;;;;;4997570;28;20034;-82
2022/12/17 21:09:12;;;;;;;19.15;11.88;;;15.00;90.70;;;;;;5007773;28;20054;-87
2022/12/17 21:11:39;;;;;;;15.93;11.38;;;14.90;90.80;;;;;;5004871;28;20038;-80
2022/12/17 21:14:06;;;;;;;16.33;10.93;;;14.90;90.60;;;;;;4995804;28;20034;-80
2022/12/17 21:16:33;;;;;;;15.88;10.48;;;14.80;90.80;;;;;;4999252;28;20034;-87
2022/12/17 21:19:00;;;;;;;15.95;9.95;;;14.80;90.60;;;;;;4997805;28;20022;-85
2022/12/17 21:21:29;;;;;;;17.27;10.68;;;14.70;90.80;;;;;;4996015;28;20391;-84
2022/12/17 21:23:56;;;;;;;15.52;10.70;;;14.70;90.50;;;;;;4996285;28;20034;-81
2022/12/17 21:26:25;;;;;;;17.92;10.52;;;14.70;89.50;;;;;;4994401;28;20367;-78
2022/12/17 21:28:53;;;;;;;18.38;10.50;;;14.60;90.70;;;;;;4996986;28;20113;-81
2022/12/17 21:31:24;;;;;;;17.70;11.18;;;14.60;89.50;;;;;;4996854;28;20038;-78
2022/12/17 21:33:52;;;;;;;21.08;11.07;;;14.60;90.60;;;;;;4995584;28;20172;-75
2022/12/17 21:36:19;;;;;;;15.75;11.23;;;14.60;90.60;;;;;;4995169;28;20042;-72
2022/12/17 21:38:46;;;;;;;21.02;11.23;;;14.50;90.80;;;;;;4977824;28;20042;-73
2022/12/17 21:41:14;;;;;;;18.58;10.20;;;14.50;90.80;;;;;;4996388;28;20050;-75
2022/12/17 21:43:40;;;;;;;15.23;10.50;;;14.50;90.80;;;;;;4977636;28;20046;-75
2022/12/17 21:46:08;;;;;;;16.55;10.30;;;14.50;90.70;;;;;;4990073;28;20042;-73
2022/12/17 21:48:36;;;;;;;21.13;10.93;;;14.50;90.80;;;;;;4995399;28;20121;-74
2022/12/17 21:51:04;;;;;;;18.02;11.80;;;14.50;91.00;;;;;;4985635;28;20126;-73
2022/12/17 21:53:31;;;;;;;17.17;12.48;;;14.40;91.00;;;;;;4993989;28;20130;-72
2022/12/17 21:56:07;;;;;;;16.88;11.43;;;14.40;91.00;;;;;;4989584;28;20042;-74
2022/12/17 21:58:33;;;;;;;16.88;11.27;;;14.50;91.10;;;;;;4978587;28;20072;-72
2022/12/17 22:01:14;;;;;;;16.17;11.30;;;14.50;91.10;;;;;;4988989;28;20430;-73
2022/12/17 22:03:40;;;;;;;19.30;11.68;;;14.50;91.10;;;;;;4982061;28;20117;-72
2022/12/17 22:06:12;;;;;;;15.80;11.20;;;14.50;91.00;;;;;;4993168;28;20133;-72
2022/12/17 22:08:39;;;;;;;18.45;12.50;;;14.50;91.10;;;;;;4993493;28;20042;-72
2022/12/17 22:11:13;;;;;;;22.35;13.75;;;14.40;91.00;;;;;;4993047;28;20026;-71
2022/12/17 22:16:25;;;;;;;24.20;14.10;;;14.30;90.90;;;;;;4995038;28;20042;-74
2022/12/17 22:18:52;;;;;;;21.35;14.48;;;14.20;90.90;;;;;;4995358;28;20089;-75
2022/12/17 22:21:18;;;;;;;19.88;13.85;;;14.20;90.90;;;;;;4993612;28;20046;-76
2022/12/17 22:23:47;;;;;;;21.92;14.05;;;14.20;90.90;;;;;;4995109;28;20057;-74
2022/12/17 22:26:17;;;;;;;18.83;12.35;;;14.10;90.90;;;;;;5061000;23;20048;-77
2022/12/17 22:28:47;;;;;;;19.40;13.07;;;14.10;90.70;;;;;;5073885;28;20041;-79
2022/12/17 22:33:58;;;;;;;20.17;12.73;;;14.00;90.90;;;;;;5069140;28;20036;-79
2022/12/17 22:36:28;;;;;;;17.95;11.60;;;14.00;90.80;;;;;;5059569;28;20037;-78
2022/12/17 22:38:54;;;;;;;17.58;10.45;;;14.00;90.90;;;;;;5036121;28;20029;-78
2022/12/17 22:44:04;;;;;;;17.75;10.90;;;14.10;90.80;;;;;;5054098;28;20069;-77
2022/12/17 22:46:30;;;;;;;18.70;11.00;;;14.10;90.90;;;;;;5053780;28;20105;-79
2022/12/17 22:48:57;;;;;;;19.48;11.43;;;14.00;90.90;;;;;;5056417;28;20484;-78
2022/12/17 22:51:24;;;;;;;19.27;11.75;;;14.00;91.00;;;;;;5073640;28;20060;-79
2022/12/17 22:53:50;;;;;;;17.50;11.18;;;14.00;91.00;;;;;;5055496;28;20031;-79
2022/12/17 22:56:17;;;;;;;18.33;11.55;;;14.00;91.00;;;;;;5055708;28;20036;-79
2022/12/17 22:58:42;;;;;;;22.90;11.30;;;14.00;91.10;;;;;;5073203;28;20044;-79
2022/12/17 23:01:08;;;;;;;17.92;12.10;;;14.00;91.10;;;;;;5073500;28;20044;-79
2022/12/17 23:03:34;;;;;;;15.55;10.10;;;13.90;91.10;;;;;;5055414;28;20029;-79
2022/12/17 23:06:11;;;;;;;18.15;10.75;;;13.90;91.00;;;;;;5055709;28;20056;-78
2022/12/17 23:08:37;;;;;;;18.35;10.75;;;13.90;91.20;;;;;;5055525;28;20112;-79
2022/12/17 23:11:14;;;;;;;17.65;10.82;;;13.80;91.10;;;;;;5073467;28;20190;-79
2022/12/17 23:13:40;;;;;;;18.48;10.10;;;13.80;91.10;;;;;;5055375;28;20094;-79
2022/12/17 23:16:06;;;;;;;19.17;9.90;;;13.80;91.30;;;;;;5055252;28;20024;-79
2022/12/17 23:18:32;;;;;;;18.25;10.10;;;13.80;91.30;;;;;;5073049;28;20495;-78
2022/12/17 23:21:10;;;;;;;13.88;9.05;;;13.80;91.30;;;;;;5054998;28;20044;-77
2022/12/17 23:23:36;;;;;;;19.00;9.95;;;13.70;91.20;;;;;;5055112;28;20043;-79
2022/12/17 23:26:20;;;;;;;18.73;10.32;;;13.70;91.30;;;;;;5054504;28;20049;-77
2022/12/17 23:28:47;;;;;;;17.98;10.27;;;13.70;91.30;;;;;;5054775;28;20055;-77
2022/12/17 23:31:16;;;;;;;20.30;9.30;;;13.70;91.40;;;;;;5055382;28;20043;-80
2022/12/17 23:33:42;;;;;;;15.50;8.82;;;13.70;91.50;;;;;;5072577;28;20043;-78
2022/12/17 23:36:10;;;;;;;16.88;9.13;;;13.70;91.30;;;;;;5054653;28;20033;-79
2022/12/17 23:38:37;;;;;;;18.52;9.32;;;13.70;91.40;;;;;;5054471;28;20056;-77
2022/12/17 23:41:11;;;;;;;15.38;8.82;;;13.70;91.40;;;;;;5054448;28;20048;-78
2022/12/17 23:43:38;;;;;;;18.50;9.43;;;13.70;91.30;;;;;;5072705;28;20032;-79
2022/12/17 23:46:04;;;;;;;11.88;8.10;;;13.70;91.30;;;;;;5072611;28;20039;-78
2022/12/17 23:48:33;;;;;;;16.30;9.15;;;13.70;91.30;;;;;;5072577;28;20033;-79
2022/12/17 23:50:59;;;;;;;17.65;8.68;;;13.70;91.30;;;;;;5054891;28;20037;-77
2022/12/17 23:53:26;;;;;;;14.40;8.98;;;13.70;91.30;;;;;;5072871;28;20380;-77
2022/12/17 23:55:52;;;;;;;15.95;9.73;;;13.60;91.30;;;;;;5054575;28;20029;-79
2022/12/17 23:58:18;;;;;;;19.42;10.02;;;13.60;91.30;;;;;;5054472;28;20037;-77
